createdAt,value
2019-01-28T00:02:01.048Z,99104.81
2019-01-28T00:04:31.612Z,99105.14
2019-01-28T00:07:02.105Z,99100.50
2019-01-28T00:09:32.605Z,99108.11
2019-01-28T00:12:03.145Z,99099.88
2019-01-28T00:14:33.615Z,99087.72
2019-01-28T00:17:04.306Z,99091.64
2019-01-28T00:19:34.770Z,99090.89
2019-01-28T00:22:05.616Z,99088.96
2019-01-28T00:24:36.105Z,99095.45
2019-01-28T00:27:06.755Z,99096.69
2019-01-28T00:29:37.281Z,99093.29
2019-01-28T00:32:07.748Z,99102.24
2019-01-28T00:34:38.205Z,99094.82
2019-01-28T00:37:08.718Z,99101.85
2019-01-28T00:39:39.211Z,99100.40
2019-01-28T00:42:09.664Z,99089.91
2019-01-28T00:44:40.169Z,99104.51
2019-01-28T00:47:10.727Z,99104.51
2019-01-28T00:49:41.230Z,99102.56
2019-01-28T00:52:11.677Z,99104.81
2019-01-28T00:54:42.182Z,99093.69
2019-01-28T00:57:12.673Z,99093.69
2019-01-28T00:59:43.188Z,99096.69
2019-01-28T01:02:13.699Z,99091.23
2019-01-28T01:04:44.308Z,99103.89
2019-01-28T01:07:15.584Z,99106.59
2019-01-28T01:09:46.054Z,99106.59
2019-01-28T01:12:16.725Z,99095.84
2019-01-28T01:14:47.179Z,99106.37
2019-01-28T01:17:17.672Z,99091.73
2019-01-28T01:19:48.168Z,99108.23
2019-01-28T01:22:18.626Z,99113.19
2019-01-28T01:24:49.115Z,99112.75
2019-01-28T01:27:19.578Z,99112.34
2019-01-28T01:29:50.068Z,99112.34
2019-01-28T01:32:20.524Z,99110.39
2019-01-28T01:34:50.981Z,99103.08
2019-01-28T01:37:21.467Z,99098.33
2019-01-28T01:39:51.921Z,99094.02
2019-01-28T01:42:22.421Z,99079.68
2019-01-28T01:44:52.865Z,99092.77
2019-01-28T01:47:23.372Z,99103.07
2019-01-28T01:49:53.824Z,99096.36
2019-01-28T01:52:24.329Z,99083.58
2019-01-28T01:54:54.820Z,99084.53
2019-01-28T01:57:25.268Z,99090.30
2019-01-28T01:59:55.753Z,99082.14
2019-01-28T02:02:33.181Z,99082.25
2019-01-28T02:04:58.415Z,99065.31
2019-01-28T02:07:28.877Z,99063.78
2019-01-28T02:09:59.368Z,99058.34
2019-01-28T02:12:29.831Z,99074.09
2019-01-28T02:15:00.336Z,99071.53
2019-01-28T02:17:30.792Z,99067.30
2019-01-28T02:20:01.292Z,99056.86
2019-01-28T02:22:31.793Z,99065.42
2019-01-28T02:25:02.241Z,99056.25
2019-01-28T02:27:32.740Z,99056.25
2019-01-28T02:30:03.329Z,99058.09
2019-01-28T02:32:33.792Z,99051.60
2019-01-28T02:35:04.430Z,99054.83
2019-01-28T02:37:34.911Z,99051.50
2019-01-28T02:40:08.205Z,99051.80
2019-01-28T02:42:38.664Z,99044.44
2019-01-28T02:45:10.294Z,99049.38
2019-01-28T02:47:40.747Z,99052.14
2019-01-28T02:50:13.856Z,99047.69
2019-01-28T02:52:44.360Z,99036.25
2019-01-28T02:55:16.607Z,99037.47
2019-01-28T02:57:47.627Z,99031.55
2019-01-28T03:00:20.383Z,99030.63
2019-01-28T03:02:50.993Z,99024.73
2019-01-28T03:05:21.830Z,99027.48
2019-01-28T03:07:52.422Z,99013.73
2019-01-28T03:10:23.899Z,99010.76
2019-01-28T03:12:54.393Z,99010.76
2019-01-28T03:15:25.013Z,99010.99
2019-01-28T03:17:55.513Z,99009.52
2019-01-28T03:20:25.997Z,99012.22
2019-01-28T03:22:56.480Z,99014.91
2019-01-28T03:25:27.046Z,99015.72
2019-01-28T03:27:57.507Z,99020.69
2019-01-28T03:30:27.998Z,99019.13
2019-01-28T03:32:58.490Z,99020.83
2019-01-28T03:35:28.989Z,99020.80
2019-01-28T03:37:59.490Z,99017.24
2019-01-28T03:40:30.096Z,99017.24
2019-01-28T03:43:00.544Z,99014.23
2019-01-28T03:45:31.144Z,99013.38
2019-01-28T03:48:01.649Z,99012.37
2019-01-28T03:50:32.253Z,99014.67
2019-01-28T03:53:02.845Z,99013.62
2019-01-28T03:55:33.295Z,99003.66
2019-01-28T03:58:03.986Z,99000.91
2019-01-28T04:00:34.573Z,99000.70
2019-01-28T04:03:05.382Z,99002.03
2019-01-28T04:05:35.947Z,98998.49
2019-01-28T04:08:06.419Z,98999.35
2019-01-28T04:10:36.931Z,99011.23
2019-01-28T04:13:07.389Z,99009.64
2019-01-28T04:15:38.000Z,99008.63
2019-01-28T04:18:08.567Z,99010.20
2019-01-28T04:20:39.067Z,99004.98
2019-01-28T04:23:09.525Z,99004.71
2019-01-28T04:25:40.076Z,99002.81
2019-01-28T04:28:10.550Z,98997.34
2019-01-28T04:30:41.050Z,98995.66
2019-01-28T04:33:11.530Z,98888.61
2019-01-28T04:35:42.039Z,98989.91
2019-01-28T04:38:12.554Z,98992.00
2019-01-28T04:40:42.999Z,98990.84
2019-01-28T04:43:13.456Z,98987.50
2019-01-28T04:45:43.974Z,98986.58
2019-01-28T04:48:14.437Z,98982.73
2019-01-28T04:50:44.895Z,98971.59
2019-01-28T04:53:15.375Z,98972.80
2019-01-28T04:55:45.875Z,98978.17
2019-01-28T04:58:16.341Z,98972.80
2019-01-28T05:00:46.836Z,98967.81
2019-01-28T05:03:17.306Z,98962.23
2019-01-28T05:05:48.308Z,98967.29
2019-01-28T05:08:18.730Z,98975.06
2019-01-28T05:10:49.222Z,98966.08
2019-01-28T05:13:19.733Z,98970.50
2019-01-28T05:15:50.193Z,98974.88
2019-01-28T05:18:20.684Z,98986.36
2019-01-28T05:20:51.136Z,98979.44
2019-01-28T05:23:21.646Z,98984.36
2019-01-28T05:25:52.129Z,98992.20
2019-01-28T05:28:22.623Z,98994.47
2019-01-28T05:30:53.117Z,98997.16
2019-01-28T05:33:23.620Z,98994.97
2019-01-28T05:35:54.121Z,98983.33
2019-01-28T05:38:24.629Z,98862.81
2019-01-28T05:40:55.099Z,98966.41
2019-01-28T05:43:25.591Z,98965.67
2019-01-28T05:45:56.086Z,98952.84
2019-01-28T05:48:26.586Z,98955.23
2019-01-28T05:50:57.033Z,98964.04
2019-01-28T05:53:27.506Z,98976.62
2019-01-28T05:55:57.987Z,98978.81
2019-01-28T05:58:28.501Z,98984.75
2019-01-28T06:00:59.016Z,98988.77
2019-01-28T06:03:29.528Z,98980.39
2019-01-28T06:06:00.051Z,98969.89
2019-01-28T06:08:30.520Z,98974.80
2019-01-28T06:11:00.991Z,98966.82
2019-01-28T06:13:31.485Z,98979.13
2019-01-28T06:16:01.944Z,98982.66
2019-01-28T06:18:32.401Z,98978.91
2019-01-28T06:21:04.626Z,98964.31
2019-01-28T06:23:35.141Z,98976.03
2019-01-28T06:26:05.953Z,98982.11
2019-01-28T06:28:36.521Z,98982.39
2019-01-28T06:31:07.109Z,98988.37
2019-01-28T06:33:37.617Z,98942.17
2019-01-28T06:36:08.141Z,99003.14
2019-01-28T06:38:38.628Z,99000.27
2019-01-28T06:41:09.190Z,98999.31
2019-01-28T06:43:39.700Z,99002.76
2019-01-28T06:46:10.181Z,98998.06
2019-01-28T06:48:40.658Z,99000.73
2019-01-28T06:51:11.204Z,98994.82
2019-01-28T06:53:41.676Z,98992.74
2019-01-28T06:56:12.138Z,98982.84
2019-01-28T06:58:42.628Z,98981.88
2019-01-28T07:01:13.361Z,98985.69
2019-01-28T07:03:43.860Z,99001.46
2019-01-28T07:06:14.345Z,99001.89
2019-01-28T07:08:44.885Z,99001.29
2019-01-28T07:11:15.399Z,99008.33
2019-01-28T07:13:45.957Z,99001.17
2019-01-28T07:16:16.475Z,99004.31
2019-01-28T07:18:46.957Z,98885.62
2019-01-28T07:21:17.454Z,98998.48
2019-01-28T07:23:47.966Z,99003.21
2019-01-28T07:26:18.424Z,98990.11
2019-01-28T07:28:49.541Z,98989.30
2019-01-28T07:31:19.995Z,98991.59
2019-01-28T07:33:50.476Z,99001.64
2019-01-28T07:36:20.984Z,99007.31
2019-01-28T07:38:51.461Z,99001.59
2019-01-28T07:41:21.990Z,99004.44
2019-01-28T07:43:52.605Z,99010.44
2019-01-28T07:46:23.068Z,99006.09
2019-01-28T07:48:56.609Z,99003.40
2019-01-28T07:51:27.115Z,98995.66
2019-01-28T07:53:57.621Z,98990.94
2019-01-28T07:56:28.099Z,98992.16
2019-01-28T07:58:58.621Z,98991.16
2019-01-28T08:01:29.159Z,98982.11
2019-01-28T08:03:59.668Z,98988.91
2019-01-28T08:06:30.338Z,98979.75
2019-01-28T08:09:00.860Z,98987.45
2019-01-28T08:11:31.317Z,98984.89
2019-01-28T08:14:01.926Z,98977.51
2019-01-28T08:16:32.401Z,98980.22
2019-01-28T08:19:02.889Z,98986.56
2019-01-28T08:21:33.406Z,98984.79
2019-01-28T08:24:03.883Z,98982.04
2019-01-28T08:26:34.397Z,98973.84
2019-01-28T08:29:05.347Z,98967.11
2019-01-28T08:31:35.867Z,98974.72
2019-01-28T08:34:07.053Z,98978.46
2019-01-28T08:36:37.550Z,98973.02
2019-01-28T08:39:10.046Z,98982.62
2019-01-28T08:41:40.604Z,98877.86
2019-01-28T08:44:11.040Z,98972.72
2019-01-28T08:46:41.642Z,98970.69
2019-01-28T08:49:12.110Z,98965.47
2019-01-28T08:51:42.687Z,98971.22
2019-01-28T08:54:13.208Z,98973.41
2019-01-28T08:56:43.884Z,98975.34
2019-01-28T08:59:14.376Z,98754.85
2019-01-28T09:01:44.884Z,98964.68
2019-01-28T09:04:15.453Z,98956.94
2019-01-28T09:06:45.969Z,98960.80
2019-01-28T09:09:16.541Z,98958.87
2019-01-28T09:11:47.228Z,98964.69
2019-01-28T09:14:17.847Z,98968.70
2019-01-28T09:16:48.336Z,98961.22
2019-01-28T09:19:19.079Z,98968.23
2019-01-28T09:21:49.557Z,98965.58
2019-01-28T09:24:20.065Z,98973.48
2019-01-28T09:26:50.521Z,98976.30
2019-01-28T09:29:21.044Z,98986.53
2019-01-28T09:31:51.576Z,98983.83
2019-01-28T09:34:22.138Z,98984.36
2019-01-28T09:36:52.641Z,98972.57
2019-01-28T09:39:23.376Z,98969.09
2019-01-28T09:41:53.935Z,98974.26
2019-01-28T09:44:25.566Z,98973.84
2019-01-28T09:46:56.202Z,98970.64
2019-01-28T09:49:26.719Z,98965.88
2019-01-28T09:51:57.388Z,98960.75
2019-01-28T09:54:28.022Z,98946.92
2019-01-28T09:56:59.308Z,98941.45
2019-01-28T09:59:29.898Z,98947.97
2019-01-28T10:02:00.432Z,98942.42
2019-01-28T10:04:30.905Z,98939.36
2019-01-28T10:07:01.433Z,98937.02
2019-01-28T10:09:31.873Z,98932.66
2019-01-28T10:12:02.612Z,98928.61
2019-01-28T10:14:33.077Z,98924.42
2019-01-28T10:17:03.552Z,98920.60
2019-01-28T10:19:34.024Z,98916.31
2019-01-28T10:22:04.760Z,98905.81
2019-01-28T10:24:35.291Z,98896.84
2019-01-28T10:27:05.981Z,98895.37
2019-01-28T10:29:36.508Z,98888.00
2019-01-28T10:32:07.113Z,98889.88
2019-01-28T10:34:37.620Z,98889.22
2019-01-28T10:37:08.174Z,98880.05
2019-01-28T10:39:40.722Z,98883.37
2019-01-28T10:42:12.339Z,98878.94
2019-01-28T10:44:42.825Z,98880.48
2019-01-28T10:47:13.443Z,98876.25
2019-01-28T10:49:43.916Z,98869.17
2019-01-28T10:52:14.437Z,98868.63
2019-01-28T10:54:47.630Z,98862.08
2019-01-28T10:57:18.467Z,98855.09
2019-01-28T10:59:48.990Z,98851.47
2019-01-28T11:02:19.661Z,98854.62
2019-01-28T11:04:50.162Z,98846.12
2019-01-28T11:07:21.378Z,98841.06
2019-01-28T11:09:51.912Z,98838.17
2019-01-28T11:12:22.557Z,98833.66
2019-01-28T11:14:53.074Z,98842.56
2019-01-28T11:17:24.717Z,98845.92
2019-01-28T11:19:55.209Z,98846.71
2019-01-28T11:22:26.070Z,98842.89
2019-01-28T11:24:56.692Z,98840.02
2019-01-28T11:27:27.617Z,98832.73
2019-01-28T11:29:58.638Z,98831.55
2019-01-28T11:32:29.176Z,98826.76
2019-01-28T11:35:00.101Z,98828.02
2019-01-28T11:37:30.659Z,98823.09
2019-01-28T11:40:01.150Z,98822.23
2019-01-28T11:42:31.636Z,98826.64
2019-01-28T11:45:02.111Z,98815.92
2019-01-28T11:47:32.737Z,98814.66
2019-01-28T11:50:03.178Z,98799.94
2019-01-28T11:52:33.635Z,98796.00
2019-01-28T11:55:04.542Z,98788.56
2019-01-28T11:57:35.533Z,98783.67
2019-01-28T12:00:10.371Z,98777.81
2019-01-28T12:02:40.928Z,98778.23
2019-01-28T12:05:11.656Z,98779.94
2019-01-28T12:07:42.215Z,98781.13
2019-01-28T12:10:13.077Z,98786.72
2019-01-28T12:12:44.591Z,98781.40
2019-01-28T12:15:15.917Z,98784.83
2019-01-28T12:17:46.486Z,98787.76
2019-01-28T12:20:17.349Z,98791.61
2019-01-28T12:22:47.912Z,98799.44
2019-01-28T12:25:18.892Z,98799.61
2019-01-28T12:27:49.593Z,98798.63
2019-01-28T12:30:23.089Z,98801.25
2019-01-28T12:32:53.697Z,98793.16
2019-01-28T12:35:24.374Z,98794.30
2019-01-28T12:37:54.982Z,98794.05
2019-01-28T12:40:26.182Z,98787.92
2019-01-28T12:42:56.784Z,98787.45
2019-01-28T12:45:27.552Z,98785.31
2019-01-28T12:47:58.213Z,98788.87
2019-01-28T12:50:29.066Z,98785.80
2019-01-28T12:52:59.592Z,98780.84
2019-01-28T12:55:30.443Z,98774.55
2019-01-28T12:58:01.065Z,98774.66
2019-01-28T13:00:39.136Z,98777.49
2019-01-28T13:03:10.766Z,98773.61
2019-01-28T13:05:41.423Z,98775.44
2019-01-28T13:08:11.894Z,98785.66
2019-01-28T13:10:42.619Z,98775.30
2019-01-28T13:13:13.081Z,98766.81
2019-01-28T13:15:43.751Z,98713.31
2019-01-28T13:18:14.228Z,98777.16
2019-01-28T13:20:44.803Z,98761.32
2019-01-28T13:23:15.301Z,98755.98
2019-01-28T13:25:46.140Z,98757.45
2019-01-28T13:28:18.320Z,98748.42
2019-01-28T13:30:48.789Z,98750.61
2019-01-28T13:33:19.467Z,98749.62
2019-01-28T13:35:49.935Z,98745.42
2019-01-28T13:38:20.624Z,98745.05
2019-01-28T13:40:51.135Z,98743.55
2019-01-28T13:43:21.606Z,98736.84
2019-01-28T13:45:52.135Z,98746.09
2019-01-28T13:48:22.695Z,98744.60
2019-01-28T13:50:53.349Z,98734.22
2019-01-28T13:53:24.023Z,98616.94
2019-01-28T13:55:54.498Z,98741.78
2019-01-28T13:58:25.112Z,98735.57
2019-01-28T14:00:55.877Z,98728.92
2019-01-28T14:03:26.528Z,98737.06
2019-01-28T14:05:57.125Z,98738.09
2019-01-28T14:08:27.612Z,98736.49
2019-01-28T14:10:58.248Z,98736.79
2019-01-28T14:13:28.877Z,98753.00
2019-01-28T14:15:59.470Z,98749.55
2019-01-28T14:18:29.990Z,98743.44
2019-01-28T14:21:03.027Z,98747.07
2019-01-28T14:23:33.504Z,98731.52
2019-01-28T14:26:04.012Z,98743.55
2019-01-28T14:28:34.601Z,98749.11
2019-01-28T14:31:05.224Z,98744.85
2019-01-28T14:33:35.767Z,98742.30
2019-01-28T14:36:06.630Z,98742.98
2019-01-28T14:38:37.167Z,98750.66
2019-01-28T14:41:08.891Z,98749.09
2019-01-28T14:43:39.447Z,98745.05
2019-01-28T14:46:10.086Z,98743.97
2019-01-28T14:48:40.591Z,98737.48
2019-01-28T14:51:11.175Z,98741.98
2019-01-28T14:53:41.680Z,98752.08
2019-01-28T14:56:12.199Z,98742.38
2019-01-28T14:58:42.663Z,98736.86
2019-01-28T15:01:13.169Z,98736.28
2019-01-28T15:03:43.657Z,98723.66
2019-01-28T15:06:14.161Z,98711.22
2019-01-28T15:08:44.670Z,98718.37
2019-01-28T15:11:15.345Z,98703.00
2019-01-28T15:13:45.812Z,98712.20
2019-01-28T15:16:16.292Z,98713.27
2019-01-28T15:18:46.829Z,98711.62
2019-01-28T15:21:17.349Z,98720.80
2019-01-28T15:23:47.939Z,98722.11
2019-01-28T15:26:18.489Z,98727.94
2019-01-28T15:28:49.023Z,98716.57
2019-01-28T15:31:19.529Z,98704.35
2019-01-28T15:33:50.335Z,98714.84
2019-01-28T15:36:20.789Z,98704.52
2019-01-28T15:38:51.344Z,98715.51
2019-01-28T15:41:21.805Z,98716.48
2019-01-28T15:43:52.312Z,98701.84
2019-01-28T15:46:24.610Z,98712.52
2019-01-28T15:48:55.290Z,98710.31
2019-01-28T15:51:25.732Z,98702.42
2019-01-28T15:53:56.238Z,98697.76
2019-01-28T15:56:26.793Z,98695.22
2019-01-28T15:58:57.265Z,98693.48
2019-01-28T16:01:27.880Z,98693.91
2019-01-28T16:03:58.382Z,98683.84
2019-01-28T16:06:28.876Z,98685.39
2019-01-28T16:08:59.370Z,98691.15
2019-01-28T16:11:29.834Z,98692.69
2019-01-28T16:14:00.329Z,98689.11
2019-01-28T16:16:30.794Z,98689.33
2019-01-28T16:19:01.266Z,98678.61
2019-01-28T16:21:31.765Z,98688.76
2019-01-28T16:24:02.424Z,98682.44
2019-01-28T16:26:32.897Z,98680.69
2019-01-28T16:29:03.396Z,98705.42
2019-01-28T16:31:33.896Z,98698.81
2019-01-28T16:34:04.655Z,98692.89
2019-01-28T16:36:35.249Z,98684.50
2019-01-28T16:39:08.688Z,98693.08
2019-01-28T16:41:39.386Z,98572.51
2019-01-28T16:44:10.153Z,98690.23
2019-01-28T16:46:40.648Z,98692.62
2019-01-28T16:49:11.111Z,98693.69
2019-01-28T16:51:41.622Z,98689.06
2019-01-28T16:54:12.078Z,98689.01
2019-01-28T16:56:42.604Z,98690.00
2019-01-28T16:59:13.060Z,98686.95
2019-01-28T17:01:43.549Z,98682.05
2019-01-28T17:04:14.148Z,98698.64
2019-01-28T17:06:44.611Z,98691.03
2019-01-28T17:09:15.569Z,98680.86
2019-01-28T17:11:46.059Z,98685.59
2019-01-28T17:14:16.544Z,98686.47
2019-01-28T17:16:47.054Z,98689.10
2019-01-28T17:19:17.512Z,98685.57
2019-01-28T17:21:48.002Z,98692.23
2019-01-28T17:24:18.470Z,98687.08
2019-01-28T17:26:49.059Z,98687.84
2019-01-28T17:29:19.528Z,98692.88
2019-01-28T17:31:50.102Z,98689.13
2019-01-28T17:34:20.592Z,98695.86
2019-01-28T17:36:51.188Z,98710.20
2019-01-28T17:39:21.934Z,98702.89
2019-01-28T17:41:52.393Z,98707.68
2019-01-28T17:44:22.938Z,98702.75
2019-01-28T17:46:53.435Z,98703.65
2019-01-28T17:49:23.912Z,98697.09
2019-01-28T17:51:54.522Z,98686.41
2019-01-28T17:54:24.974Z,98695.66
2019-01-28T17:56:55.434Z,98696.50
2019-01-28T17:59:25.928Z,98697.75
2019-01-28T18:01:56.421Z,98699.56
2019-01-28T18:04:26.880Z,98694.72
2019-01-28T18:06:57.439Z,98684.19
2019-01-28T18:09:27.901Z,98688.70
2019-01-28T18:11:58.360Z,98698.17
2019-01-28T18:14:28.870Z,98691.61
2019-01-28T18:16:59.327Z,98695.55
2019-01-28T18:19:29.792Z,98689.98
2019-01-28T18:22:00.289Z,98682.92
2019-01-28T18:24:30.844Z,98686.08
2019-01-28T18:27:01.315Z,98700.73
2019-01-28T18:29:31.826Z,98709.23
2019-01-28T18:32:02.276Z,98697.30
2019-01-28T18:34:32.735Z,98704.02
2019-01-28T18:37:03.229Z,98708.92
2019-01-28T18:39:33.785Z,98702.73
2019-01-28T18:42:04.280Z,98701.61
2019-01-28T18:44:34.752Z,98703.92
2019-01-28T18:47:05.272Z,98709.23
2019-01-28T18:49:35.739Z,98726.25
2019-01-28T18:52:06.349Z,98718.57
2019-01-28T18:54:36.800Z,98717.01
2019-01-28T18:57:07.282Z,98719.10
2019-01-28T18:59:37.755Z,98720.44
2019-01-28T19:02:08.343Z,98728.94
2019-01-28T19:04:38.853Z,98726.84
2019-01-28T19:07:26.688Z,98732.97
2019-01-28T19:10:15.990Z,98732.30
2019-01-28T19:12:55.086Z,98721.65
2019-01-28T19:15:50.520Z,98717.69
2019-01-28T19:18:39.920Z,98715.38
2019-01-28T19:21:14.865Z,98723.44
2019-01-28T19:23:45.368Z,98727.46
2019-01-28T19:26:15.840Z,98722.69
2019-01-28T19:28:46.347Z,98721.03
2019-01-28T19:31:16.799Z,98720.14
2019-01-28T19:33:47.300Z,98732.83
2019-01-28T19:36:17.757Z,98736.58
2019-01-28T19:38:48.289Z,98729.92
2019-01-28T19:41:18.739Z,98733.59
2019-01-28T19:43:49.196Z,98743.66
2019-01-28T19:46:19.786Z,98739.02
2019-01-28T19:48:50.233Z,98743.37
2019-01-28T19:51:20.725Z,98756.86
2019-01-28T19:53:51.234Z,98752.37
2019-01-28T19:56:21.695Z,98740.59
2019-01-28T19:58:53.326Z,98733.67
2019-01-28T20:01:23.734Z,98722.67
2019-01-28T20:03:54.200Z,98726.20
2019-01-28T20:06:24.707Z,98718.20
2019-01-28T20:08:57.932Z,98724.04
2019-01-28T20:11:28.417Z,98747.91
2019-01-28T20:13:58.939Z,98749.64
2019-01-28T20:16:29.418Z,98752.08
2019-01-28T20:18:59.884Z,98749.32
2019-01-28T20:21:30.387Z,98762.53
2019-01-28T20:24:00.840Z,98770.52
2019-01-28T20:26:31.418Z,98771.61
2019-01-28T20:29:01.918Z,98772.45
2019-01-28T20:31:32.386Z,98762.80
2019-01-28T20:34:03.089Z,98763.94
2019-01-28T20:36:33.556Z,98764.47
2019-01-28T20:39:05.879Z,98769.70
2019-01-28T20:41:36.368Z,98772.67
2019-01-28T20:44:07.037Z,98780.13
2019-01-28T20:46:37.542Z,98766.25
2019-01-28T20:49:08.001Z,98766.25
2019-01-28T20:51:38.564Z,98768.33
2019-01-28T20:54:09.007Z,98766.45
2019-01-28T20:56:39.506Z,98758.41
2019-01-28T20:59:09.985Z,98763.98
2019-01-28T21:01:40.579Z,98773.77
2019-01-28T21:04:11.303Z,98776.41
2019-01-28T21:06:41.708Z,98773.27
2019-01-28T21:09:12.395Z,98770.52
2019-01-28T21:11:42.858Z,98758.58
2019-01-28T21:14:13.312Z,98761.58
2019-01-28T21:16:43.817Z,98761.58
2019-01-28T21:19:14.273Z,98758.76
2019-01-28T21:21:44.748Z,98755.69
2019-01-28T21:24:15.251Z,98764.54
2019-01-28T21:26:46.053Z,98764.54
2019-01-28T21:29:16.624Z,98753.81
2019-01-28T21:31:47.086Z,98764.81
2019-01-28T21:34:17.551Z,98741.80
2019-01-28T21:37:12.957Z,98740.11
2019-01-28T21:39:43.439Z,98739.33
2019-01-28T21:42:14.033Z,98758.32
2019-01-28T21:44:44.485Z,98768.84
2019-01-28T21:47:14.986Z,98765.73
2019-01-28T21:49:45.445Z,98765.73
2019-01-28T21:52:16.012Z,98752.53
2019-01-28T21:54:46.465Z,98747.98
2019-01-28T21:57:16.962Z,98764.08
2019-01-28T21:59:47.429Z,98764.08
2019-01-28T22:02:17.920Z,98756.62
2019-01-28T22:04:48.450Z,98756.62
2019-01-28T22:07:18.956Z,98766.33
2019-01-28T22:09:49.417Z,98766.33
2019-01-28T22:12:19.914Z,98754.81
2019-01-28T22:14:50.373Z,98754.81
2019-01-28T22:17:20.876Z,98761.99
2019-01-28T22:19:51.332Z,98650.02
2019-01-28T22:22:21.824Z,98766.55
2019-01-28T22:24:52.314Z,98762.17
2019-01-28T22:27:22.821Z,98761.05
2019-01-28T22:29:53.276Z,98772.34
2019-01-28T22:32:23.777Z,98774.55
2019-01-28T22:34:54.289Z,98786.28
2019-01-28T22:37:24.752Z,98771.09
2019-01-28T22:39:55.284Z,98772.20
2019-01-28T22:42:25.822Z,98769.24
2019-01-28T22:44:56.312Z,98758.68
2019-01-28T22:47:26.803Z,98754.53
2019-01-28T22:49:57.328Z,98761.97
2019-01-28T22:52:29.499Z,98775.59
2019-01-28T22:55:00.252Z,98798.41
2019-01-28T22:57:30.659Z,98783.43
2019-01-28T23:00:01.161Z,98775.34
2019-01-28T23:02:31.659Z,98763.23
2019-01-28T23:05:02.138Z,98765.25
2019-01-28T23:07:32.642Z,98773.77
2019-01-28T23:10:03.218Z,98770.73
2019-01-28T23:12:33.723Z,98767.30
2019-01-28T23:15:05.639Z,98767.93
2019-01-28T23:17:36.140Z,98762.97
2019-01-28T23:20:07.357Z,98755.21
2019-01-28T23:22:37.858Z,98750.11
2019-01-28T23:25:08.503Z,98756.37
2019-01-28T23:27:38.992Z,98764.06
2019-01-28T23:30:12.066Z,98764.39
2019-01-28T23:32:42.666Z,98778.53
2019-01-28T23:35:13.223Z,98782.71
2019-01-28T23:37:43.719Z,98761.73
2019-01-28T23:40:14.469Z,98763.49
2019-01-28T23:42:47.329Z,98763.03
2019-01-28T23:45:18.013Z,98775.43
2019-01-28T23:47:48.468Z,98769.83
2019-01-28T23:50:18.969Z,98737.69
2019-01-28T23:52:49.424Z,98778.22
2019-01-28T23:55:20.119Z,98789.72
2019-01-28T23:57:56.595Z,98789.72
